sensor_id;sensor_type;location;lat;lon;timestamp;pressure;altitude;pressure_sealevel;temperature;humidity
64200;BME280;50516;52.272;5.136;2023-07-09T00:00:44;101709.66;;;25.28;66.15
64200;BME280;50516;52.272;5.136;2023-07-09T00:03:12;101709.50;;;25.25;66.02
64200;BME280;50516;52.272;5.136;2023-07-09T00:05:37;101707.75;;;25.20;65.88
64200;BME280;50516;52.272;5.136;2023-07-09T00:08:03;101706.09;;;25.19;66.03
64200;BME280;50516;52.272;5.136;2023-07-09T00:10:28;101709.28;;;25.18;65.71
64200;BME280;50516;52.272;5.136;2023-07-09T00:12:54;101706.22;;;25.10;66.26
64200;BME280;50516;52.272;5.136;2023-07-09T00:15:19;101705.75;;;25.08;66.21
64200;BME280;50516;52.272;5.136;2023-07-09T00:17:46;101709.63;;;25.04;65.99
64200;BME280;50516;52.272;5.136;2023-07-09T00:20:15;101721.22;;;25.02;66.65
64200;BME280;50516;52.272;5.136;2023-07-09T00:22:42;101724.03;;;25.02;66.05
64200;BME280;50516;52.272;5.136;2023-07-09T00:25:10;101720.75;;;25.00;65.83
64200;BME280;50516;52.272;5.136;2023-07-09T00:27:39;101719.22;;;25.03;65.26
64200;BME280;50516;52.272;5.136;2023-07-09T00:30:08;101710.31;;;25.01;65.44
64200;BME280;50516;52.272;5.136;2023-07-09T00:32:37;101720.25;;;24.98;66.31
64200;BME280;50516;52.272;5.136;2023-07-09T00:35:09;101724.59;;;24.95;66.52
64200;BME280;50516;52.272;5.136;2023-07-09T00:37:34;101722.22;;;24.85;66.90
64200;BME280;50516;52.272;5.136;2023-07-09T00:39:59;101729.38;;;24.83;66.54
64200;BME280;50516;52.272;5.136;2023-07-09T00:42:25;101729.47;;;24.74;67.46
64200;BME280;50516;52.272;5.136;2023-07-09T00:44:51;101730.75;;;24.64;67.74
64200;BME280;50516;52.272;5.136;2023-07-09T00:47:18;101727.34;;;24.58;67.88
64200;BME280;50516;52.272;5.136;2023-07-09T00:49:46;101727.34;;;24.58;67.96
64200;BME280;50516;52.272;5.136;2023-07-09T00:52:38;101727.81;;;24.60;67.54
64200;BME280;50516;52.272;5.136;2023-07-09T00:55:11;101734.97;;;24.58;67.39
64200;BME280;50516;52.272;5.136;2023-07-09T00:57:39;101736.94;;;24.57;67.88
64200;BME280;50516;52.272;5.136;2023-07-09T01:00:09;101737.59;;;24.54;67.88
64200;BME280;50516;52.272;5.136;2023-07-09T01:02:44;101737.59;;;24.54;67.90
64200;BME280;50516;52.272;5.136;2023-07-09T01:05:11;101730.34;;;24.53;68.26
64200;BME280;50516;52.272;5.136;2023-07-09T01:07:38;101737.47;;;24.51;68.29
64200;BME280;50516;52.272;5.136;2023-07-09T01:10:04;101731.84;;;24.51;68.14
64200;BME280;50516;52.272;5.136;2023-07-09T01:12:30;101731.03;;;24.50;68.13
64200;BME280;50516;52.272;5.136;2023-07-09T01:14:56;101735.47;;;24.51;68.23
64200;BME280;50516;52.272;5.136;2023-07-09T01:17:25;101731.03;;;24.50;67.86
64200;BME280;50516;52.272;5.136;2023-07-09T01:19:53;101738.28;;;24.51;68.11
64200;BME280;50516;52.272;5.136;2023-07-09T01:22:20;101733.00;;;24.50;67.79
64200;BME280;50516;52.272;5.136;2023-07-09T01:24:50;101736.31;;;24.52;67.79
64200;BME280;50516;52.272;5.136;2023-07-09T01:27:23;101739.00;;;24.48;67.61
64200;BME280;50516;52.272;5.136;2023-07-09T01:29:49;101731.72;;;24.47;68.03
64200;BME280;50516;52.272;5.136;2023-07-09T01:32:16;101738.03;;;24.44;68.27
64200;BME280;50516;52.272;5.136;2023-07-09T01:34:44;101744.13;;;24.46;67.73
64200;BME280;50516;52.272;5.136;2023-07-09T01:37:09;101734.75;;;24.42;67.74
64200;BME280;50516;52.272;5.136;2023-07-09T01:39:35;101733.56;;;24.43;68.06
64200;BME280;50516;52.272;5.136;2023-07-09T01:42:01;101741.88;;;24.39;67.50
64200;BME280;50516;52.272;5.136;2023-07-09T01:44:26;101741.06;;;24.39;67.85
64200;BME280;50516;52.272;5.136;2023-07-09T01:46:54;101746.22;;;24.37;67.60
64200;BME280;50516;52.272;5.136;2023-07-09T01:49:20;101749.69;;;24.34;67.14
64200;BME280;50516;52.272;5.136;2023-07-09T01:51:46;101742.44;;;24.33;67.05
64200;BME280;50516;52.272;5.136;2023-07-09T01:54:14;101739.16;;;24.31;66.62
64200;BME280;50516;52.272;5.136;2023-07-09T01:56:41;101746.41;;;24.32;66.73
64200;BME280;50516;52.272;5.136;2023-07-09T01:59:07;101746.75;;;24.30;66.47
64200;BME280;50516;52.272;5.136;2023-07-09T02:01:36;101748.28;;;24.28;66.14
64200;BME280;50516;52.272;5.136;2023-07-09T02:04:03;101751.06;;;24.28;66.34
64200;BME280;50516;52.272;5.136;2023-07-09T02:06:29;101753.88;;;24.28;66.42
64200;BME280;50516;52.272;5.136;2023-07-09T02:08:57;101747.81;;;24.26;66.01
64200;BME280;50516;52.272;5.136;2023-07-09T02:11:23;101750.94;;;24.24;66.35
64200;BME280;50516;52.272;5.136;2023-07-09T02:13:49;101750.94;;;24.24;66.91
64200;BME280;50516;52.272;5.136;2023-07-09T02:16:14;101744.03;;;24.21;66.46
64200;BME280;50516;52.272;5.136;2023-07-09T02:18:39;101746.03;;;24.21;66.29
64200;BME280;50516;52.272;5.136;2023-07-09T02:21:05;101741.22;;;24.21;66.72
64200;BME280;50516;52.272;5.136;2023-07-09T02:23:30;101745.19;;;24.20;66.32
64200;BME280;50516;52.272;5.136;2023-07-09T02:25:56;101746.44;;;24.11;67.51
64200;BME280;50516;52.272;5.136;2023-07-09T02:28:21;101746.84;;;24.00;68.00
64200;BME280;50516;52.272;5.136;2023-07-09T02:30:46;101749.19;;;23.98;68.04
64200;BME280;50516;52.272;5.136;2023-07-09T02:33:12;101747.19;;;23.99;67.89
64200;BME280;50516;52.272;5.136;2023-07-09T02:35:37;101748.69;;;23.96;68.02
64200;BME280;50516;52.272;5.136;2023-07-09T02:38:03;101750.69;;;23.96;67.93
64200;BME280;50516;52.272;5.136;2023-07-09T02:40:29;101750.69;;;23.96;67.58
64200;BME280;50516;52.272;5.136;2023-07-09T02:42:54;101754.63;;;23.95;68.07
64200;BME280;50516;52.272;5.136;2023-07-09T02:45:20;101741.66;;;23.90;68.17
64200;BME280;50516;52.272;5.136;2023-07-09T02:47:46;101741.50;;;23.86;68.12
64200;BME280;50516;52.272;5.136;2023-07-09T02:50:12;101745.00;;;23.83;68.78
64200;BME280;50516;52.272;5.136;2023-07-09T02:52:37;101737.72;;;23.82;68.73
64200;BME280;50516;52.272;5.136;2023-07-09T02:55:03;101749.63;;;23.79;68.78
64200;BME280;50516;52.272;5.136;2023-07-09T02:57:29;101739.56;;;23.78;68.98
64200;BME280;50516;52.272;5.136;2023-07-09T02:59:54;101748.31;;;23.77;68.84
64200;BME280;50516;52.272;5.136;2023-07-09T03:02:19;101754.75;;;23.77;68.76
64200;BME280;50516;52.272;5.136;2023-07-09T03:04:45;101745.84;;;23.75;69.10
64200;BME280;50516;52.272;5.136;2023-07-09T03:07:10;101750.97;;;23.73;69.28
64200;BME280;50516;52.272;5.136;2023-07-09T03:09:35;101744.91;;;23.71;69.27
64200;BME280;50516;52.272;5.136;2023-07-09T03:12:01;101750.03;;;23.69;69.03
64200;BME280;50516;52.272;5.136;2023-07-09T03:14:26;101743.94;;;23.67;69.39
64200;BME280;50516;52.272;5.136;2023-07-09T03:16:52;101748.38;;;23.68;69.50
64200;BME280;50516;52.272;5.136;2023-07-09T03:19:17;101739.84;;;23.64;69.69
64200;BME280;50516;52.272;5.136;2023-07-09T03:21:43;101747.41;;;23.64;69.89
64200;BME280;50516;52.272;5.136;2023-07-09T03:24:08;101746.47;;;23.60;69.91
64200;BME280;50516;52.272;5.136;2023-07-09T03:26:34;101761.63;;;23.59;69.73
64200;BME280;50516;52.272;5.136;2023-07-09T03:28:59;101756.69;;;23.56;69.71
64200;BME280;50516;52.272;5.136;2023-07-09T03:31:24;101757.03;;;23.54;70.35
64200;BME280;50516;52.272;5.136;2023-07-09T03:33:51;101763.31;;;23.51;70.55
64200;BME280;50516;52.272;5.136;2023-07-09T03:36:17;101758.56;;;23.51;70.71
64200;BME280;50516;52.272;5.136;2023-07-09T03:38:44;101748.50;;;23.50;70.40
64200;BME280;50516;52.272;5.136;2023-07-09T03:41:10;101750.94;;;23.52;70.44
64200;BME280;50516;52.272;5.136;2023-07-09T03:43:35;101750.63;;;23.54;70.11
64200;BME280;50516;52.272;5.136;2023-07-09T03:46:01;101750.75;;;23.57;69.80
64200;BME280;50516;52.272;5.136;2023-07-09T03:48:26;101753.22;;;23.59;69.45
64200;BME280;50516;52.272;5.136;2023-07-09T03:50:52;101758.97;;;23.62;69.78
64200;BME280;50516;52.272;5.136;2023-07-09T03:53:17;101760.94;;;23.62;69.73
64200;BME280;50516;52.272;5.136;2023-07-09T03:55:45;101767.72;;;23.61;69.69
64200;BME280;50516;52.272;5.136;2023-07-09T03:58:11;101764.91;;;23.61;69.92
64200;BME280;50516;52.272;5.136;2023-07-09T04:00:37;101767.72;;;23.61;70.13
64200;BME280;50516;52.272;5.136;2023-07-09T04:03:02;101763.75;;;23.62;69.97
64200;BME280;50516;52.272;5.136;2023-07-09T04:05:28;101764.91;;;23.61;70.11
64200;BME280;50516;52.272;5.136;2023-07-09T04:07:53;101763.75;;;23.62;70.40
64200;BME280;50516;52.272;5.136;2023-07-09T04:10:19;101758.16;;;23.62;70.27
64200;BME280;50516;52.272;5.136;2023-07-09T04:12:45;101762.75;;;23.66;70.27
64200;BME280;50516;52.272;5.136;2023-07-09T04:15:11;101764.72;;;23.66;70.23
64200;BME280;50516;52.272;5.136;2023-07-09T04:17:40;101770.47;;;23.69;69.88
64200;BME280;50516;52.272;5.136;2023-07-09T04:20:09;101773.75;;;23.72;69.94
64200;BME280;50516;52.272;5.136;2023-07-09T04:22:35;101781.81;;;23.73;70.00
64200;BME280;50516;52.272;5.136;2023-07-09T04:25:01;101778.34;;;23.76;69.91
64200;BME280;50516;52.272;5.136;2023-07-09T04:27:30;101777.31;;;23.81;69.79
64200;BME280;50516;52.272;5.136;2023-07-09T04:29:56;101780.28;;;23.84;69.33
64200;BME280;50516;52.272;5.136;2023-07-09T04:32:21;101779.28;;;23.89;69.62
64200;BME280;50516;52.272;5.136;2023-07-09T04:34:47;101776.94;;;23.91;69.62
64200;BME280;50516;52.272;5.136;2023-07-09T04:37:13;101773.78;;;23.93;69.58
64200;BME280;50516;52.272;5.136;2023-07-09T04:39:39;101782.34;;;23.96;69.70
64200;BME280;50516;52.272;5.136;2023-07-09T04:42:06;101785.66;;;23.98;69.74
64200;BME280;50516;52.272;5.136;2023-07-09T04:44:35;101777.84;;;24.04;69.56
64200;BME280;50516;52.272;5.136;2023-07-09T04:47:01;101780.94;;;24.11;69.27
64200;BME280;50516;52.272;5.136;2023-07-09T04:49:26;101776.53;;;24.22;69.60
64200;BME280;50516;52.272;5.136;2023-07-09T04:51:52;101777.47;;;24.27;69.35
64200;BME280;50516;52.272;5.136;2023-07-09T04:54:18;101773.53;;;24.28;69.22
64200;BME280;50516;52.272;5.136;2023-07-09T04:56:44;101771.31;;;24.33;69.03
64200;BME280;50516;52.272;5.136;2023-07-09T04:59:10;101773.78;;;24.35;69.23
64200;BME280;50516;52.272;5.136;2023-07-09T05:01:36;101774.34;;;24.28;70.15
64200;BME280;50516;52.272;5.136;2023-07-09T05:04:01;101770.38;;;24.29;70.14
64200;BME280;50516;52.272;5.136;2023-07-09T05:06:27;101767.13;;;24.39;69.57
64200;BME280;50516;52.272;5.136;2023-07-09T05:08:52;101766.56;;;24.46;69.71
64200;BME280;50516;52.272;5.136;2023-07-09T05:11:17;101774.44;;;24.53;69.55
64200;BME280;50516;52.272;5.136;2023-07-09T05:13:42;101769.25;;;24.64;69.06
64200;BME280;50516;52.272;5.136;2023-07-09T05:16:08;101764.13;;;24.78;69.17
64200;BME280;50516;52.272;5.136;2023-07-09T05:18:33;101769.28;;;24.88;68.97
64200;BME280;50516;52.272;5.136;2023-07-09T05:20:58;101765.31;;;24.89;68.75
64200;BME280;50516;52.272;5.136;2023-07-09T05:23:25;101770.00;;;24.97;68.70
64200;BME280;50516;52.272;5.136;2023-07-09T05:26:00;101771.44;;;25.04;68.57
64200;BME280;50516;52.272;5.136;2023-07-09T05:28:27;101767.91;;;25.19;68.22
64200;BME280;50516;52.272;5.136;2023-07-09T05:30:52;101762.59;;;25.39;67.74
64200;BME280;50516;52.272;5.136;2023-07-09T05:33:18;101758.59;;;25.52;65.53
64200;BME280;50516;52.272;5.136;2023-07-09T05:35:44;101761.16;;;25.69;64.96
64200;BME280;50516;52.272;5.136;2023-07-09T05:38:12;101756.88;;;25.88;65.67
64200;BME280;50516;52.272;5.136;2023-07-09T05:40:42;101766.25;;;26.04;64.88
64200;BME280;50516;52.272;5.136;2023-07-09T05:43:08;101759.06;;;26.19;64.75
64200;BME280;50516;52.272;5.136;2023-07-09T05:45:33;101760.91;;;26.28;64.21
64200;BME280;50516;52.272;5.136;2023-07-09T05:47:59;101764.72;;;26.35;63.03
64200;BME280;50516;52.272;5.136;2023-07-09T05:50:26;101768.56;;;26.43;63.86
64200;BME280;50516;52.272;5.136;2023-07-09T05:52:51;101768.31;;;26.48;63.49
64200;BME280;50516;52.272;5.136;2023-07-09T05:55:17;101769.94;;;26.49;63.52
64200;BME280;50516;52.272;5.136;2023-07-09T05:57:42;101762.75;;;26.36;64.38
64200;BME280;50516;52.272;5.136;2023-07-09T06:00:08;101770.31;;;26.48;63.77
64200;BME280;50516;52.272;5.136;2023-07-09T06:02:34;101773.78;;;26.57;63.59
64200;BME280;50516;52.272;5.136;2023-07-09T06:04:59;101774.00;;;26.64;63.99
64200;BME280;50516;52.272;5.136;2023-07-09T06:07:25;101781.69;;;26.80;63.66
64200;BME280;50516;52.272;5.136;2023-07-09T06:09:50;101777.97;;;26.91;64.60
64200;BME280;50516;52.272;5.136;2023-07-09T06:12:17;101784.59;;;26.99;64.04
64200;BME280;50516;52.272;5.136;2023-07-09T06:14:45;101776.06;;;27.11;64.74
64200;BME280;50516;52.272;5.136;2023-07-09T06:17:10;101785.06;;;27.17;65.45
64200;BME280;50516;52.272;5.136;2023-07-09T06:19:35;101784.06;;;27.25;65.90
64200;BME280;50516;52.272;5.136;2023-07-09T06:22:01;101789.56;;;27.34;65.90
64200;BME280;50516;52.272;5.136;2023-07-09T06:24:26;101791.97;;;27.36;66.30
64200;BME280;50516;52.272;5.136;2023-07-09T06:26:51;101797.72;;;27.39;66.25
64200;BME280;50516;52.272;5.136;2023-07-09T06:29:17;101794.28;;;27.30;66.19
64200;BME280;50516;52.272;5.136;2023-07-09T06:31:42;101802.81;;;27.49;65.70
64200;BME280;50516;52.272;5.136;2023-07-09T06:34:08;101807.00;;;27.56;65.63
64200;BME280;50516;52.272;5.136;2023-07-09T06:36:35;101802.06;;;27.53;64.66
64200;BME280;50516;52.272;5.136;2023-07-09T06:39:01;101811.81;;;27.55;65.39
64200;BME280;50516;52.272;5.136;2023-07-09T06:41:26;101805.97;;;27.64;64.55
64200;BME280;50516;52.272;5.136;2023-07-09T06:43:51;101808.06;;;27.67;65.38
64200;BME280;50516;52.272;5.136;2023-07-09T06:46:19;101805.59;;;27.65;65.76
64200;BME280;50516;52.272;5.136;2023-07-09T06:48:45;101808.94;;;27.71;65.85
64200;BME280;50516;52.272;5.136;2023-07-09T06:51:10;101813.00;;;27.90;65.18
64200;BME280;50516;52.272;5.136;2023-07-09T06:53:36;101820.63;;;28.05;64.70
64200;BME280;50516;52.272;5.136;2023-07-09T06:56:02;101817.81;;;28.05;63.80
64200;BME280;50516;52.272;5.136;2023-07-09T06:58:29;101823.38;;;28.01;65.12
64200;BME280;50516;52.272;5.136;2023-07-09T07:00:57;101823.50;;;28.25;64.69
64200;BME280;50516;52.272;5.136;2023-07-09T07:03:23;101828.91;;;28.33;63.48
64200;BME280;50516;52.272;5.136;2023-07-09T07:05:50;101829.72;;;28.34;62.34
64200;BME280;50516;52.272;5.136;2023-07-09T07:08:18;101833.66;;;28.29;62.86
64200;BME280;50516;52.272;5.136;2023-07-09T07:10:45;101826.22;;;28.21;63.31
64200;BME280;50516;52.272;5.136;2023-07-09T07:13:12;101819.34;;;28.38;63.23
64200;BME280;50516;52.272;5.136;2023-07-09T07:15:38;101821.13;;;28.46;63.02
64200;BME280;50516;52.272;5.136;2023-07-09T07:18:03;101819.94;;;28.47;62.45
64200;BME280;50516;52.272;5.136;2023-07-09T07:20:29;101824.06;;;28.53;62.21
64200;BME280;50516;52.272;5.136;2023-07-09T07:22:55;101823.94;;;28.46;61.65
64200;BME280;50516;52.272;5.136;2023-07-09T07:25:21;101833.63;;;28.65;62.18
64200;BME280;50516;52.272;5.136;2023-07-09T07:27:46;101833.84;;;28.75;61.37
64200;BME280;50516;52.272;5.136;2023-07-09T07:30:12;101833.53;;;28.81;60.09
64200;BME280;50516;52.272;5.136;2023-07-09T07:32:39;101822.44;;;28.91;60.01
64200;BME280;50516;52.272;5.136;2023-07-09T07:35:07;101828.34;;;29.06;59.91
64200;BME280;50516;52.272;5.136;2023-07-09T07:37:32;101829.22;;;29.10;59.40
64200;BME280;50516;52.272;5.136;2023-07-09T07:39:58;101828.69;;;29.24;59.48
64200;BME280;50516;52.272;5.136;2023-07-09T07:42:23;101835.63;;;29.26;59.20
64200;BME280;50516;52.272;5.136;2023-07-09T07:44:49;101842.53;;;29.09;58.11
64200;BME280;50516;52.272;5.136;2023-07-09T07:47:14;101848.63;;;28.88;58.19
64200;BME280;50516;52.272;5.136;2023-07-09T07:49:40;101840.28;;;28.95;59.86
64200;BME280;50516;52.272;5.136;2023-07-09T07:52:06;101840.00;;;29.24;58.88
64200;BME280;50516;52.272;5.136;2023-07-09T07:54:32;101836.38;;;29.23;57.66
64200;BME280;50516;52.272;5.136;2023-07-09T07:56:58;101833.53;;;29.23;58.46
64200;BME280;50516;52.272;5.136;2023-07-09T07:59:24;101832.72;;;29.46;57.62
64200;BME280;50516;52.272;5.136;2023-07-09T08:01:49;101835.41;;;29.39;57.35
64200;BME280;50516;52.272;5.136;2023-07-09T08:04:15;101840.66;;;29.63;56.65
64200;BME280;50516;52.272;5.136;2023-07-09T08:06:40;101836.16;;;29.36;56.37
64200;BME280;50516;52.272;5.136;2023-07-09T08:09:06;101839.81;;;29.36;57.14
64200;BME280;50516;52.272;5.136;2023-07-09T08:11:31;101839.94;;;29.20;57.14
64200;BME280;50516;52.272;5.136;2023-07-09T08:13:57;101851.63;;;29.19;57.73
64200;BME280;50516;52.272;5.136;2023-07-09T08:16:23;101848.88;;;29.03;57.53
64200;BME280;50516;52.272;5.136;2023-07-09T08:18:48;101848.44;;;29.20;56.85
64200;BME280;50516;52.272;5.136;2023-07-09T08:21:13;101840.66;;;29.17;56.21
64200;BME280;50516;52.272;5.136;2023-07-09T08:23:39;101838.88;;;28.86;55.13
64200;BME280;50516;52.272;5.136;2023-07-09T08:26:04;101835.81;;;28.94;54.41
64200;BME280;50516;52.272;5.136;2023-07-09T08:28:30;101840.94;;;28.89;52.28
64200;BME280;50516;52.272;5.136;2023-07-09T08:30:56;101842.06;;;28.84;53.07
64200;BME280;50516;52.272;5.136;2023-07-09T08:33:23;101828.09;;;29.14;51.65
64200;BME280;50516;52.272;5.136;2023-07-09T08:35:52;101829.31;;;29.13;49.00
64200;BME280;50516;52.272;5.136;2023-07-09T08:38:18;101829.06;;;29.22;50.33
64200;BME280;50516;52.272;5.136;2023-07-09T08:43:38;101830.53;;;29.16;50.06
64200;BME280;50516;52.272;5.136;2023-07-09T08:48:48;101827.19;;;29.30;50.35
64200;BME280;50516;52.272;5.136;2023-07-09T08:51:28;101827.84;;;29.46;49.61
64200;BME280;50516;52.272;5.136;2023-07-09T08:53:59;101822.47;;;29.64;49.73
64200;BME280;50516;52.272;5.136;2023-07-09T08:56:26;101818.47;;;29.65;50.18
64200;BME280;50516;52.272;5.136;2023-07-09T08:58:54;101813.66;;;29.69;50.35
64200;BME280;50516;52.272;5.136;2023-07-09T09:01:23;101813.09;;;29.34;51.29
64200;BME280;50516;52.272;5.136;2023-07-09T09:04:03;101810.91;;;29.73;49.91
64200;BME280;50516;52.272;5.136;2023-07-09T09:06:31;101803.81;;;29.60;48.15
64200;BME280;50516;52.272;5.136;2023-07-09T09:09:17;101812.38;;;29.17;48.59
64200;BME280;50516;52.272;5.136;2023-07-09T09:14:32;101816.09;;;29.21;48.46
64200;BME280;50516;52.272;5.136;2023-07-09T09:16:58;101820.22;;;28.81;49.32
64200;BME280;50516;52.272;5.136;2023-07-09T09:22:05;101819.63;;;28.52;48.86
64200;BME280;50516;52.272;5.136;2023-07-09T09:24:41;101815.53;;;28.69;49.34
64200;BME280;50516;52.272;5.136;2023-07-09T09:27:12;101812.25;;;28.87;47.23
64200;BME280;50516;52.272;5.136;2023-07-09T09:29:38;101801.94;;;28.75;47.85
64200;BME280;50516;52.272;5.136;2023-07-09T09:34:43;101799.31;;;28.47;48.75
64200;BME280;50516;52.272;5.136;2023-07-09T09:37:12;101789.25;;;28.65;49.20
64200;BME280;50516;52.272;5.136;2023-07-09T09:39:38;101788.94;;;28.93;48.17
64200;BME280;50516;52.272;5.136;2023-07-09T09:42:10;101788.75;;;28.83;48.08
64200;BME280;50516;52.272;5.136;2023-07-09T09:44:36;101798.75;;;28.76;47.69
64200;BME280;50516;52.272;5.136;2023-07-09T09:47:01;101800.78;;;28.99;47.45
64200;BME280;50516;52.272;5.136;2023-07-09T09:49:27;101800.03;;;29.25;47.28
64200;BME280;50516;52.272;5.136;2023-07-09T09:51:53;101804.59;;;29.34;46.53
64200;BME280;50516;52.272;5.136;2023-07-09T09:54:26;101802.75;;;29.18;47.64
64200;BME280;50516;52.272;5.136;2023-07-09T09:56:53;101806.78;;;28.98;47.73
64200;BME280;50516;52.272;5.136;2023-07-09T09:59:21;101790.56;;;29.18;47.99
64200;BME280;50516;52.272;5.136;2023-07-09T10:01:57;101791.97;;;29.27;47.63
64200;BME280;50516;52.272;5.136;2023-07-09T10:04:24;101793.72;;;29.36;47.34
64200;BME280;50516;52.272;5.136;2023-07-09T10:06:52;101798.09;;;29.56;47.88
64200;BME280;50516;52.272;5.136;2023-07-09T10:10:13;101804.50;;;29.26;48.36
64200;BME280;50516;52.272;5.136;2023-07-09T10:12:20;101794.47;;;29.32;48.68
64200;BME280;50516;52.272;5.136;2023-07-09T10:14:58;101799.75;;;29.84;47.28
64200;BME280;50516;52.272;5.136;2023-07-09T10:17:41;101790.63;;;30.28;47.48
64200;BME280;50516;52.272;5.136;2023-07-09T10:31:00;101819.28;;;30.91;47.59
64200;BME280;50516;52.272;5.136;2023-07-09T10:36:41;101814.94;;;31.45;46.70
64200;BME280;50516;52.272;5.136;2023-07-09T10:41:56;101821.09;;;31.06;48.52
64200;BME280;50516;52.272;5.136;2023-07-09T10:44:35;101818.06;;;30.51;48.90
64200;BME280;50516;52.272;5.136;2023-07-09T10:47:09;101818.84;;;29.91;47.53
64200;BME280;50516;52.272;5.136;2023-07-09T10:49:40;101817.75;;;30.29;47.51
64200;BME280;50516;52.272;5.136;2023-07-09T10:52:31;101820.56;;;29.99;46.61
64200;BME280;50516;52.272;5.136;2023-07-09T10:57:52;101801.34;;;29.58;47.19
64200;BME280;50516;52.272;5.136;2023-07-09T11:00:21;101807.81;;;29.09;47.71
64200;BME280;50516;52.272;5.136;2023-07-09T11:02:54;101804.19;;;28.89;48.11
64200;BME280;50516;52.272;5.136;2023-07-09T11:05:23;101801.94;;;28.98;48.56
64200;BME280;50516;52.272;5.136;2023-07-09T11:08:12;101812.44;;;28.98;47.47
64200;BME280;50516;52.272;5.136;2023-07-09T11:10:45;101814.84;;;28.56;46.71
64200;BME280;50516;52.272;5.136;2023-07-09T11:13:14;101821.94;;;28.47;46.74
64200;BME280;50516;52.272;5.136;2023-07-09T11:15:43;101818.28;;;28.27;46.33
64200;BME280;50516;52.272;5.136;2023-07-09T11:18:16;101827.88;;;28.22;46.10
64200;BME280;50516;52.272;5.136;2023-07-09T11:20:44;101811.28;;;28.01;47.06
64200;BME280;50516;52.272;5.136;2023-07-09T11:23:22;101805.28;;;28.41;46.16
64200;BME280;50516;52.272;5.136;2023-07-09T11:26:11;101803.28;;;28.81;45.57
64200;BME280;50516;52.272;5.136;2023-07-09T11:28:37;101792.88;;;29.31;44.85
64200;BME280;50516;52.272;5.136;2023-07-09T11:31:19;101789.59;;;29.56;44.90
64200;BME280;50516;52.272;5.136;2023-07-09T11:36:59;101792.94;;;29.89;45.03
64200;BME280;50516;52.272;5.136;2023-07-09T11:41:54;101793.47;;;29.71;45.18
64200;BME280;50516;52.272;5.136;2023-07-09T11:44:22;101793.06;;;29.96;45.46
64200;BME280;50516;52.272;5.136;2023-07-09T11:49:39;101792.50;;;29.86;44.70
64200;BME280;50516;52.272;5.136;2023-07-09T11:52:10;101805.72;;;30.06;44.94
64200;BME280;50516;52.272;5.136;2023-07-09T11:54:37;101812.53;;;30.01;45.10
64200;BME280;50516;52.272;5.136;2023-07-09T11:57:03;101805.78;;;30.39;44.97
64200;BME280;50516;52.272;5.136;2023-07-09T11:59:29;101809.19;;;30.56;44.15
64200;BME280;50516;52.272;5.136;2023-07-09T12:01:54;101822.56;;;30.93;43.61
64200;BME280;50516;52.272;5.136;2023-07-09T12:04:31;101838.66;;;30.82;44.40
64200;BME280;50516;52.272;5.136;2023-07-09T12:06:59;101835.78;;;31.19;43.31
64200;BME280;50516;52.272;5.136;2023-07-09T12:09:32;101843.69;;;31.40;44.16
64200;BME280;50516;52.272;5.136;2023-07-09T12:11:57;101848.75;;;31.65;43.87
64200;BME280;50516;52.272;5.136;2023-07-09T12:14:23;101840.25;;;31.65;44.30
64200;BME280;50516;52.272;5.136;2023-07-09T12:16:51;101839.75;;;31.52;45.26
64200;BME280;50516;52.272;5.136;2023-07-09T12:19:20;101832.59;;;31.24;46.45
64200;BME280;50516;52.272;5.136;2023-07-09T12:21:49;101851.19;;;31.18;47.43
64200;BME280;50516;52.272;5.136;2023-07-09T12:26:54;101839.41;;;30.79;48.45
64200;BME280;50516;52.272;5.136;2023-07-09T12:29:19;101841.19;;;30.94;48.36
64200;BME280;50516;52.272;5.136;2023-07-09T12:31:45;101851.75;;;30.59;49.49
64200;BME280;50516;52.272;5.136;2023-07-09T12:34:13;101856.34;;;30.71;48.05
64200;BME280;50516;52.272;5.136;2023-07-09T12:36:43;101858.72;;;31.03;47.33
64200;BME280;50516;52.272;5.136;2023-07-09T12:39:09;101884.59;;;30.64;46.93
64200;BME280;50516;52.272;5.136;2023-07-09T12:41:40;101887.88;;;30.09;46.36
64200;BME280;50516;52.272;5.136;2023-07-09T12:44:16;101891.19;;;30.72;46.60
64200;BME280;50516;52.272;5.136;2023-07-09T12:46:43;101879.91;;;30.79;47.05
64200;BME280;50516;52.272;5.136;2023-07-09T12:49:20;101855.66;;;30.82;46.24
64200;BME280;50516;52.272;5.136;2023-07-09T12:51:46;101844.03;;;30.94;46.65
64200;BME280;50516;52.272;5.136;2023-07-09T12:54:16;101856.28;;;31.02;46.20
64200;BME280;50516;52.272;5.136;2023-07-09T12:56:42;101848.94;;;31.38;45.83
64200;BME280;50516;52.272;5.136;2023-07-09T12:59:28;101859.03;;;31.36;46.18
64200;BME280;50516;52.272;5.136;2023-07-09T13:02:15;101861.50;;;31.41;45.76
64200;BME280;50516;52.272;5.136;2023-07-09T13:04:42;101862.63;;;31.29;45.87
64200;BME280;50516;52.272;5.136;2023-07-09T13:07:27;101851.94;;;31.15;45.53
64200;BME280;50516;52.272;5.136;2023-07-09T13:09:54;101839.03;;;31.21;45.06
64200;BME280;50516;52.272;5.136;2023-07-09T13:12:28;101835.41;;;30.83;45.29
64200;BME280;50516;52.272;5.136;2023-07-09T13:14:55;101832.84;;;30.71;45.24
64200;BME280;50516;52.272;5.136;2023-07-09T13:17:20;101829.25;;;30.74;45.78
64200;BME280;50516;52.272;5.136;2023-07-09T13:19:46;101827.41;;;31.34;45.75
64200;BME280;50516;52.272;5.136;2023-07-09T13:22:16;101812.31;;;31.22;45.49
64200;BME280;50516;52.272;5.136;2023-07-09T13:24:42;101826.94;;;31.28;45.98
64200;BME280;50516;52.272;5.136;2023-07-09T13:27:12;101855.47;;;31.01;45.55
64200;BME280;50516;52.272;5.136;2023-07-09T13:29:39;101861.38;;;30.89;47.41
64200;BME280;50516;52.272;5.136;2023-07-09T13:32:15;101861.78;;;30.87;47.21
64200;BME280;50516;52.272;5.136;2023-07-09T13:34:41;101868.03;;;31.00;47.64
64200;BME280;50516;52.272;5.136;2023-07-09T13:37:15;101876.25;;;30.75;47.11